Time;durP1;ratioP1;P1;durP2;ratioP2;P2;SDS_P1;SDS_P2;PMS_P1;PMS_P2;Temp;Humidity;BMP_temperature;BMP_pressure;BME280_temperature;BME280_humidity;BME280_pressure;Samples;Min_cycle;Max_cycle;Signal;HPM_P1;HPM_P2
2023/06/03 00:00:40;;;;;;;3.23;3.03;;;10.30;54.30;;;;;;6327541;27;20281;-83
2023/06/03 00:03:46;;;;;;;2.87;2.77;;;10.20;54.40;;;;;;6312216;27;20228;-84
2023/06/03 00:06:50;;;;;;;2.80;2.70;;;10.10;54.50;;;;;;6319755;27;20858;-85
2023/06/03 00:09:54;;;;;;;4.00;3.00;;;10.10;54.50;;;;;;6306788;28;20253;-82
2023/06/03 00:12:57;;;;;;;3.03;2.90;;;10.10;54.30;;;;;;6325098;27;20289;-82
2023/06/03 00:16:00;;;;;;;3.10;2.73;;;10.10;54.20;;;;;;6302293;28;20243;-83
2023/06/03 00:19:05;;;;;;;3.67;2.97;;;10.00;54.40;;;;;;6320865;27;20228;-83
2023/06/03 00:22:09;;;;;;;3.37;2.90;;;10.00;54.30;;;;;;6313820;28;20240;-84
2023/06/03 00:25:14;;;;;;;3.80;2.70;;;10.00;54.50;;;;;;6330459;27;20314;-82
2023/06/03 00:28:17;;;;;;;2.80;2.70;;;10.00;54.50;;;;;;6338064;27;20768;-84
2023/06/03 00:31:21;;;;;;;2.77;2.67;;;9.90;54.70;;;;;;6335333;27;20381;-82
2023/06/03 00:34:25;;;;;;;3.43;3.30;;;9.80;54.60;;;;;;6309422;28;20239;-83
2023/06/03 00:37:29;;;;;;;2.53;2.53;;;9.80;54.80;;;;;;6309851;27;20615;-83
2023/06/03 00:40:32;;;;;;;2.53;2.53;;;9.70;54.80;;;;;;6321233;27;20234;-83
2023/06/03 00:43:35;;;;;;;3.23;3.13;;;9.70;54.90;;;;;;6308881;28;20236;-84
2023/06/03 00:46:39;;;;;;;2.93;2.80;;;9.70;55.00;;;;;;6326614;27;20320;-81
2023/06/03 00:49:44;;;;;;;3.23;2.90;;;9.60;55.10;;;;;;6308651;27;20832;-85
2023/06/03 00:52:48;;;;;;;2.67;2.53;;;9.60;55.30;;;;;;6310516;27;20236;-83
2023/06/03 00:55:52;;;;;;;2.50;2.50;;;9.60;55.20;;;;;;6306024;28;20239;-79
2023/06/03 00:58:55;;;;;;;2.80;2.70;;;9.60;55.30;;;;;;6328268;28;20278;-83
2023/06/03 01:01:58;;;;;;;2.77;2.73;;;9.50;55.30;;;;;;6317102;27;20893;-83
2023/06/03 01:05:04;;;;;;;3.07;2.97;;;9.50;55.30;;;;;;6314851;28;20245;-82
2023/06/03 01:08:14;;;;;;;3.03;2.83;;;9.50;55.30;;;;;;6321633;27;20331;-85
2023/06/03 01:11:24;;;;;;;2.83;2.73;;;9.50;55.40;;;;;;6311419;28;20251;-86
2023/06/03 01:14:33;;;;;;;3.20;3.03;;;9.40;55.40;;;;;;6319779;27;20232;-85
2023/06/03 01:17:45;;;;;;;2.50;2.50;;;9.40;55.50;;;;;;6311484;27;20232;-82
2023/06/03 01:20:51;;;;;;;3.27;3.07;;;9.40;55.50;;;;;;6316680;27;20358;-83
2023/06/03 01:23:56;;;;;;;3.00;2.90;;;9.40;55.80;;;;;;6314268;28;20231;-85
2023/06/03 01:26:59;;;;;;;3.33;3.10;;;9.30;55.50;;;;;;6313754;27;20233;-84
2023/06/03 01:30:04;;;;;;;3.43;3.13;;;9.30;55.50;;;;;;6330072;27;20291;-82
2023/06/03 01:33:07;;;;;;;2.40;2.40;;;9.30;55.50;;;;;;6334019;27;20330;-83
2023/06/03 01:36:10;;;;;;;2.67;2.60;;;9.20;55.50;;;;;;6304620;27;20240;-83
2023/06/03 01:39:16;;;;;;;2.60;2.60;;;9.20;55.50;;;;;;6330478;27;20244;-83
2023/06/03 01:42:20;;;;;;;2.90;2.70;;;9.20;55.70;;;;;;6315899;27;20266;-80
2023/06/03 01:45:23;;;;;;;2.67;2.67;;;9.10;55.50;;;;;;6315743;27;20264;-82
2023/06/03 01:48:26;;;;;;;2.80;2.80;;;9.10;55.40;;;;;;6309400;28;20244;-81
2023/06/03 01:51:29;;;;;;;2.70;2.60;;;9.00;55.60;;;;;;6323993;27;20287;-82
2023/06/03 01:54:36;;;;;;;3.33;3.23;;;9.00;55.40;;;;;;6322381;27;20245;-83
2023/06/03 01:57:39;;;;;;;2.53;2.53;;;9.00;55.30;;;;;;6315186;27;20336;-85
2023/06/03 02:00:44;;;;;;;2.47;2.47;;;9.00;55.30;;;;;;6325861;27;20833;-84
2023/06/03 02:03:47;;;;;;;2.80;2.70;;;9.00;55.10;;;;;;6319333;27;20913;-85
2023/06/03 02:06:51;;;;;;;2.83;2.73;;;9.00;55.10;;;;;;6327779;27;20239;-84
2023/06/03 02:09:55;;;;;;;3.00;2.70;;;9.00;55.30;;;;;;6312592;28;20249;-85
2023/06/03 02:12:58;;;;;;;2.63;2.50;;;9.00;55.20;;;;;;6327447;27;20333;-80
2023/06/03 02:16:03;;;;;;;3.10;3.00;;;8.90;55.20;;;;;;6298963;27;20237;-81
2023/06/03 02:19:12;;;;;;;2.80;2.60;;;8.90;55.10;;;;;;6321335;27;20881;-84
2023/06/03 02:22:18;;;;;;;3.00;2.87;;;8.90;55.30;;;;;;6318287;27;20239;-84
2023/06/03 02:25:24;;;;;;;3.67;3.20;;;8.90;55.20;;;;;;6314790;27;20240;-86
2023/06/03 02:28:29;;;;;;;2.53;2.53;;;8.80;55.30;;;;;;6312912;28;20334;-84
2023/06/03 02:31:33;;;;;;;3.10;2.90;;;8.80;55.10;;;;;;6321701;27;20614;-83
2023/06/03 02:34:36;;;;;;;2.83;2.67;;;8.80;55.20;;;;;;6319739;27;20228;-83
2023/06/03 02:37:40;;;;;;;2.30;2.30;;;8.80;55.40;;;;;;6325775;27;20251;-84
2023/06/03 02:40:44;;;;;;;2.60;2.60;;;8.70;55.40;;;;;;6325155;27;20770;-83
2023/06/03 02:43:47;;;;;;;2.53;2.43;;;8.70;55.10;;;;;;6316571;27;20801;-83
2023/06/03 02:46:51;;;;;;;2.60;2.50;;;8.70;55.20;;;;;;6319420;27;20229;-84
2023/06/03 02:49:55;;;;;;;2.63;2.63;;;8.70;55.20;;;;;;6327960;27;20244;-84
2023/06/03 02:52:59;;;;;;;2.70;2.60;;;8.60;55.20;;;;;;6332279;27;20277;-85
2023/06/03 02:56:03;;;;;;;2.60;2.60;;;8.60;54.80;;;;;;6313016;28;20235;-85
2023/06/03 02:59:07;;;;;;;3.03;2.80;;;8.60;54.90;;;;;;6351477;27;20255;-80
2023/06/03 03:02:10;;;;;;;3.13;3.03;;;8.60;54.90;;;;;;6342868;27;20239;-84
2023/06/03 03:05:13;;;;;;;2.80;2.60;;;8.60;55.10;;;;;;6335556;27;20236;-84
2023/06/03 03:08:17;;;;;;;2.67;2.67;;;8.60;55.20;;;;;;6324745;27;20703;-82
2023/06/03 03:11:21;;;;;;;2.97;2.77;;;8.60;55.10;;;;;;6154745;27;4505422;-83
2023/06/03 03:14:26;;;;;;;2.70;2.50;;;8.60;55.10;;;;;;6325363;27;20297;-84
2023/06/03 03:17:30;;;;;;;2.57;2.37;;;8.60;55.20;;;;;;6312660;27;20313;-84
2023/06/03 03:20:33;;;;;;;2.97;2.77;;;8.70;54.90;;;;;;6318935;27;20232;-84
2023/06/03 03:23:37;;;;;;;2.70;2.50;;;8.80;55.00;;;;;;6309241;27;20233;-83
2023/06/03 03:26:42;;;;;;;2.73;2.63;;;8.80;55.00;;;;;;6314777;27;20241;-84
2023/06/03 03:29:45;;;;;;;2.77;2.70;;;8.80;55.00;;;;;;6317525;27;20326;-84
2023/06/03 03:32:49;;;;;;;2.47;2.47;;;8.80;54.70;;;;;;6312154;27;20254;-78
2023/06/03 03:35:53;;;;;;;2.83;2.70;;;8.80;54.70;;;;;;6319502;27;20592;-80
2023/06/03 03:39:02;;;;;;;2.53;2.53;;;8.80;54.70;;;;;;6305763;28;20220;-80
2023/06/03 03:42:10;;;;;;;3.37;3.03;;;8.80;54.80;;;;;;6301422;27;20249;-82
2023/06/03 03:45:17;;;;;;;2.90;2.80;;;8.90;54.60;;;;;;6316394;27;20268;-81
2023/06/03 03:48:23;;;;;;;3.00;2.90;;;8.90;54.40;;;;;;6311724;28;20530;-80
2023/06/03 03:51:26;;;;;;;2.77;2.77;;;8.90;54.30;;;;;;6312270;27;20273;-80
2023/06/03 03:54:30;;;;;;;2.57;2.57;;;8.90;54.30;;;;;;6305124;28;20510;-79
2023/06/03 03:57:36;;;;;;;2.63;2.50;;;8.90;54.20;;;;;;6303153;28;20283;-81
2023/06/03 04:00:41;;;;;;;3.00;2.80;;;8.90;54.30;;;;;;6307713;27;20238;-82
2023/06/03 04:03:45;;;;;;;2.97;2.77;;;9.00;54.40;;;;;;6302214;27;20232;-81
2023/06/03 04:06:49;;;;;;;3.03;2.77;;;8.90;54.40;;;;;;6304106;27;20466;-80
2023/06/03 04:09:52;;;;;;;2.50;2.50;;;9.00;54.50;;;;;;6298604;28;20596;-80
2023/06/03 04:12:57;;;;;;;2.90;2.70;;;9.00;54.60;;;;;;6305000;28;20870;-80
2023/06/03 04:16:04;;;;;;;2.83;2.63;;;9.00;54.40;;;;;;6330811;27;21554;-79
2023/06/03 04:19:12;;;;;;;2.57;2.50;;;9.00;54.60;;;;;;6322999;27;20236;-81
2023/06/03 04:22:21;;;;;;;2.90;2.80;;;9.00;54.50;;;;;;6300987;27;20363;-81
2023/06/03 04:25:25;;;;;;;2.90;2.70;;;9.00;54.70;;;;;;6293556;28;20237;-82
2023/06/03 04:28:30;;;;;;;2.63;2.63;;;9.10;54.70;;;;;;6306110;28;20785;-82
2023/06/03 04:31:33;;;;;;;4.93;3.07;;;9.10;54.50;;;;;;6325679;27;20264;-80
2023/06/03 04:34:49;;;;;;;2.93;2.73;;;9.20;54.60;;;;;;6304107;27;20310;-78
2023/06/03 04:37:52;;;;;;;3.40;3.20;;;9.20;55.20;;;;;;6321230;27;20323;-79
2023/06/03 04:40:56;;;;;;;2.97;2.77;;;9.40;54.80;;;;;;6331537;27;20263;-77
2023/06/03 04:44:02;;;;;;;2.73;2.73;;;9.40;54.50;;;;;;6337619;28;20229;-77
2023/06/03 04:47:10;;;;;;;3.00;2.80;;;9.40;54.40;;;;;;6384008;27;20245;-80
2023/06/03 04:50:17;;;;;;;3.10;2.90;;;9.50;54.30;;;;;;6355104;27;20234;-80
2023/06/03 04:53:20;;;;;;;2.93;2.83;;;9.60;54.70;;;;;;6344197;28;20248;-80
2023/06/03 04:56:24;;;;;;;2.90;2.80;;;9.70;54.40;;;;;;6348645;28;20242;-82
2023/06/03 04:59:29;;;;;;;3.03;2.83;;;9.80;54.00;;;;;;6375432;27;20234;-80
2023/06/03 05:02:32;;;;;;;2.90;2.70;;;10.10;53.60;;;;;;6357742;27;20247;-79
2023/06/03 05:05:39;;;;;;;2.93;2.80;;;10.30;53.30;;;;;;6344648;27;20232;-79
2023/06/03 05:08:43;;;;;;;2.80;2.70;;;10.50;53.00;;;;;;6336905;27;20247;-79
2023/06/03 05:11:46;;;;;;;2.47;2.47;;;10.60;53.00;;;;;;6344303;27;20234;-80
2023/06/03 05:14:51;;;;;;;3.90;2.90;;;10.80;52.60;;;;;;6353647;27;20216;-82
2023/06/03 05:17:54;;;;;;;2.93;2.83;;;10.90;52.40;;;;;;6334658;27;20236;-80
2023/06/03 05:20:57;;;;;;;2.97;2.87;;;11.10;51.90;;;;;;6339278;27;20215;-79
2023/06/03 05:24:00;;;;;;;3.80;2.70;;;11.40;51.80;;;;;;6328087;27;20230;-82
2023/06/03 05:27:06;;;;;;;2.97;2.77;;;11.70;51.20;;;;;;6305210;27;20244;-83
2023/06/03 05:30:13;;;;;;;3.57;3.27;;;11.90;51.00;;;;;;6324336;27;20854;-82
2023/06/03 05:33:26;;;;;;;3.03;2.90;;;11.90;50.70;;;;;;6331732;27;20240;-81
2023/06/03 05:36:30;;;;;;;3.33;2.83;;;11.90;51.20;;;;;;6300618;28;20233;-81
2023/06/03 05:39:33;;;;;;;2.83;2.70;;;12.00;50.90;;;;;;6340869;27;20738;-82
2023/06/03 05:42:36;;;;;;;2.90;2.80;;;12.20;51.00;;;;;;6309299;27;20236;-85
2023/06/03 05:45:45;;;;;;;2.80;2.70;;;12.50;50.80;;;;;;6317529;27;20232;-83
2023/06/03 05:48:48;;;;;;;3.30;3.00;;;12.70;50.50;;;;;;6306162;27;20234;-83
2023/06/03 05:51:51;;;;;;;3.23;2.93;;;13.00;50.50;;;;;;6312313;27;20321;-84
2023/06/03 05:54:54;;;;;;;3.13;2.83;;;13.30;49.30;;;;;;6315514;27;20311;-84
2023/06/03 05:57:58;;;;;;;3.17;2.97;;;13.60;48.80;;;;;;6311180;28;20240;-83
2023/06/03 06:01:02;;;;;;;2.93;2.73;;;14.00;47.90;;;;;;6327629;27;20236;-82
2023/06/03 06:04:05;;;;;;;3.10;2.87;;;14.20;47.70;;;;;;6311604;27;20229;-82
2023/06/03 06:07:09;;;;;;;2.30;2.20;;;14.30;47.20;;;;;;6314411;27;20224;-84
2023/06/03 06:10:12;;;;;;;2.63;2.53;;;14.60;47.70;;;;;;6342828;27;20225;-84
2023/06/03 06:13:15;;;;;;;2.70;2.47;;;14.90;47.30;;;;;;6325715;27;20228;-83
2023/06/03 06:16:21;;;;;;;2.93;2.77;;;15.10;47.00;;;;;;6325238;28;20244;-81
2023/06/03 06:19:25;;;;;;;2.80;2.60;;;15.30;46.40;;;;;;6367576;27;20230;-82
2023/06/03 06:22:28;;;;;;;4.90;2.60;;;15.70;46.50;;;;;;6364194;27;20270;-81
2023/06/03 06:25:31;;;;;;;2.67;2.47;;;15.90;45.60;;;;;;6351566;27;20235;-83
2023/06/03 06:28:35;;;;;;;3.20;2.80;;;16.20;46.00;;;;;;6340354;27;20221;-81
2023/06/03 06:31:39;;;;;;;5.17;2.57;;;16.70;45.50;;;;;;6350198;27;20231;-82
2023/06/03 06:34:42;;;;;;;2.80;2.50;;;16.80;44.50;;;;;;6375938;27;20237;-83
2023/06/03 06:37:46;;;;;;;3.07;2.87;;;17.00;44.50;;;;;;6358241;27;20236;-81
2023/06/03 06:40:52;;;;;;;11.80;3.23;;;17.20;43.90;;;;;;6331971;27;20231;-79
2023/06/03 06:43:56;;;;;;;4.93;2.73;;;17.00;44.50;;;;;;6340728;28;20224;-80
2023/06/03 06:47:00;;;;;;;6.63;3.10;;;17.20;44.20;;;;;;6350625;27;20228;-79
2023/06/03 06:50:08;;;;;;;7.70;3.30;;;17.20;45.00;;;;;;6346903;27;20236;-84
2023/06/03 06:53:12;;;;;;;3.43;2.50;;;17.50;44.80;;;;;;6352902;27;20278;-80
2023/06/03 06:56:18;;;;;;;3.00;2.80;;;17.50;43.30;;;;;;6344340;27;20227;-83
2023/06/03 06:59:21;;;;;;;3.17;2.83;;;17.60;43.90;;;;;;6318900;27;20789;-84
2023/06/03 07:02:26;;;;;;;3.97;2.60;;;17.80;43.90;;;;;;6305574;27;20237;-82
2023/06/03 07:05:30;;;;;;;9.73;3.37;;;17.90;43.40;;;;;;6309462;27;20247;-82
2023/06/03 07:08:33;;;;;;;5.13;2.90;;;17.90;43.30;;;;;;6318089;27;20274;-81
2023/06/03 07:11:41;;;;;;;4.13;2.23;;;18.00;43.90;;;;;;6306342;27;20240;-83
2023/06/03 07:14:45;;;;;;;3.10;2.90;;;18.00;43.30;;;;;;6326090;27;20228;-82
2023/06/03 07:17:51;;;;;;;6.23;3.03;;;18.20;43.30;;;;;;6301469;27;20319;-84
2023/06/03 07:20:55;;;;;;;4.10;2.43;;;18.30;43.40;;;;;;6339420;27;20252;-84
2023/06/03 07:24:00;;;;;;;3.13;2.10;;;18.30;42.90;;;;;;6318813;27;20221;-81
2023/06/03 07:27:07;;;;;;;4.20;2.70;;;18.20;42.30;;;;;;6310660;27;20323;-83
2023/06/03 07:30:16;;;;;;;2.20;2.10;;;18.30;43.20;;;;;;6310068;28;20814;-82
2023/06/03 07:33:28;;;;;;;2.50;2.40;;;18.00;43.10;;;;;;6306483;28;20248;-82
2023/06/03 07:36:31;;;;;;;3.90;2.50;;;18.00;42.70;;;;;;6306542;28;20245;-84
2023/06/03 07:39:34;;;;;;;6.80;2.50;;;18.00;42.30;;;;;;6312664;28;20293;-81
2023/06/03 07:42:38;;;;;;;2.83;2.67;;;17.90;42.90;;;;;;6308622;27;20244;-80
2023/06/03 07:45:41;;;;;;;5.73;2.57;;;17.60;42.90;;;;;;6344741;27;20237;-80
2023/06/03 07:48:46;;;;;;;3.17;2.60;;;17.50;43.50;;;;;;6310380;27;20315;-80
2023/06/03 07:51:51;;;;;;;4.60;2.47;;;17.20;43.60;;;;;;6314763;27;20722;-83
2023/06/03 07:54:54;;;;;;;2.70;2.07;;;17.20;42.80;;;;;;6294957;27;20283;-82
2023/06/03 07:57:57;;;;;;;2.80;2.60;;;17.00;42.50;;;;;;6329038;27;20794;-81
2023/06/03 08:01:01;;;;;;;9.40;2.63;;;17.10;43.00;;;;;;6327560;27;20269;-80
2023/06/03 08:04:26;;;;;;;2.73;2.53;;;17.20;42.30;;;;;;6316009;27;20232;-81
2023/06/03 08:07:30;;;;;;;2.17;2.10;;;17.30;43.60;;;;;;6302110;27;20272;-82
2023/06/03 08:10:35;;;;;;;2.40;2.30;;;17.40;43.30;;;;;;6296525;27;20245;-80
2023/06/03 08:13:38;;;;;;;2.80;2.13;;;17.50;42.80;;;;;;6331558;27;20743;-81
2023/06/03 08:16:41;;;;;;;2.27;2.17;;;17.40;42.30;;;;;;6310651;27;20240;-80
2023/06/03 08:19:46;;;;;;;2.73;2.23;;;17.30;42.20;;;;;;6315132;27;20236;-81
2023/06/03 08:22:49;;;;;;;2.53;2.50;;;17.40;42.90;;;;;;6321490;27;20766;-78
2023/06/03 08:25:53;;;;;;;2.70;2.43;;;17.50;42.90;;;;;;6312059;27;20315;-81
2023/06/03 08:28:56;;;;;;;3.17;2.50;;;17.50;42.70;;;;;;6308929;27;20248;-81
2023/06/03 08:31:59;;;;;;;2.63;2.40;;;17.50;42.30;;;;;;6320491;27;20248;-78
2023/06/03 08:35:04;;;;;;;2.53;2.27;;;17.40;42.80;;;;;;6312276;27;20236;-80
2023/06/03 08:38:07;;;;;;;3.13;2.90;;;17.40;42.40;;;;;;6314044;27;20736;-81
2023/06/03 08:41:11;;;;;;;2.20;2.10;;;17.50;42.70;;;;;;6311104;27;20636;-78
2023/06/03 08:44:21;;;;;;;2.87;2.33;;;17.60;42.10;;;;;;6313616;27;20326;-80
2023/06/03 08:47:35;;;;;;;3.77;2.27;;;17.70;41.50;;;;;;6316168;27;20242;-80
2023/06/03 08:50:43;;;;;;;2.40;2.40;;;17.60;42.00;;;;;;6313519;27;20390;-79
2023/06/03 08:53:49;;;;;;;2.23;2.13;;;17.70;42.00;;;;;;6305801;28;20327;-81
2023/06/03 08:56:58;;;;;;;3.27;2.10;;;17.80;41.40;;;;;;6316841;27;20223;-82
2023/06/03 09:00:02;;;;;;;2.50;2.40;;;18.00;41.80;;;;;;6330293;27;20247;-80
2023/06/03 09:03:07;;;;;;;2.30;2.17;;;18.00;41.50;;;;;;6324669;27;20250;-80
2023/06/03 09:06:13;;;;;;;2.20;2.10;;;18.30;40.60;;;;;;6349558;27;20227;-79
2023/06/03 09:09:17;;;;;;;2.00;1.90;;;18.30;40.60;;;;;;6346408;27;20223;-80
2023/06/03 09:12:20;;;;;;;2.23;2.07;;;18.40;40.50;;;;;;6340039;27;20232;-79
2023/06/03 09:15:24;;;;;;;3.30;2.10;;;18.60;39.80;;;;;;6320145;27;20347;-82
2023/06/03 09:18:28;;;;;;;3.17;2.40;;;18.50;40.30;;;;;;6325640;27;20253;-82
2023/06/03 09:21:33;;;;;;;3.77;2.20;;;18.30;40.60;;;;;;6341016;27;20235;-80
2023/06/03 09:24:36;;;;;;;3.17;2.00;;;18.60;39.40;;;;;;6345000;27;20236;-80
2023/06/03 09:27:41;;;;;;;3.03;2.10;;;18.60;39.10;;;;;;6326151;27;20233;-79
2023/06/03 09:30:45;;;;;;;2.10;1.90;;;18.50;39.20;;;;;;6337304;27;20265;-79
2023/06/03 09:33:49;;;;;;;2.00;1.83;;;18.60;40.20;;;;;;6330273;27;20770;-80
2023/06/03 09:36:53;;;;;;;2.03;1.93;;;18.60;40.20;;;;;;6337263;27;20703;-80
2023/06/03 09:39:56;;;;;;;7.27;2.27;;;18.80;40.40;;;;;;6323370;27;20228;-80
2023/06/03 09:43:00;;;;;;;4.83;2.63;;;19.00;39.70;;;;;;6334743;27;20243;-79
2023/06/03 09:46:10;;;;;;;4.27;2.10;;;19.20;39.30;;;;;;6337474;27;20246;-80
2023/06/03 09:49:14;;;;;;;3.80;2.27;;;19.10;39.90;;;;;;6322000;27;20365;-81
2023/06/03 09:52:39;;;;;;;2.93;2.23;;;19.20;38.90;;;;;;6311101;28;20285;-81
2023/06/03 09:55:43;;;;;;;2.00;2.00;;;18.90;39.10;;;;;;6312444;27;20785;-82
2023/06/03 09:58:46;;;;;;;3.07;2.10;;;18.80;39.00;;;;;;6311987;27;20252;-79
2023/06/03 10:01:50;;;;;;;2.10;2.00;;;18.80;38.70;;;;;;6302555;28;20426;-81
2023/06/03 10:04:53;;;;;;;3.23;2.20;;;18.70;39.20;;;;;;6310942;28;20237;-82
2023/06/03 10:07:58;;;;;;;2.00;1.90;;;18.80;39.60;;;;;;6312931;28;20257;-81
2023/06/03 10:11:05;;;;;;;2.90;2.40;;;18.90;39.30;;;;;;6315653;27;20739;-79
2023/06/03 10:14:08;;;;;;;2.20;2.20;;;18.80;38.50;;;;;;6306585;27;20724;-80
2023/06/03 10:17:13;;;;;;;2.10;1.90;;;18.90;38.50;;;;;;6311635;27;20248;-82
2023/06/03 10:20:32;;;;;;;2.77;2.20;;;18.70;39.00;;;;;;6333868;27;20251;-81
2023/06/03 10:23:39;;;;;;;2.53;2.40;;;18.80;39.20;;;;;;6328114;27;20692;-83
2023/06/03 10:26:42;;;;;;;4.90;2.00;;;19.10;39.20;;;;;;6314558;27;20750;-80
2023/06/03 10:29:47;;;;;;;2.80;2.53;;;19.20;39.30;;;;;;6308326;28;20288;-82
2023/06/03 10:32:50;;;;;;;8.17;2.10;;;19.30;39.10;;;;;;6311164;27;20298;-82
2023/06/03 10:35:57;;;;;;;1.80;1.70;;;19.20;38.90;;;;;;6310667;27;20294;-83
2023/06/03 10:39:09;;;;;;;4.33;2.20;;;19.10;39.00;;;;;;6319436;27;20237;-82
2023/06/03 10:42:13;;;;;;;2.27;1.90;;;19.10;39.00;;;;;;6314669;28;20259;-82
2023/06/03 10:45:17;;;;;;;2.30;2.20;;;19.10;38.90;;;;;;6308693;27;20306;-81
2023/06/03 10:48:23;;;;;;;2.37;2.10;;;19.20;39.50;;;;;;6312432;28;20232;-81
2023/06/03 10:51:42;;;;;;;3.67;2.10;;;19.50;39.90;;;;;;6313706;28;20374;-84
2023/06/03 10:54:56;;;;;;;4.20;2.60;;;19.60;40.10;;;;;;6316349;27;20289;-81
2023/06/03 10:58:03;;;;;;;3.97;2.00;;;19.70;39.50;;;;;;6313367;27;20221;-81
2023/06/03 11:01:06;;;;;;;2.00;1.90;;;20.00;39.40;;;;;;6302856;27;20236;-82
2023/06/03 11:04:17;;;;;;;3.03;1.90;;;19.80;39.70;;;;;;6318014;27;20338;-82
2023/06/03 11:07:44;;;;;;;2.30;2.20;;;20.00;39.10;;;;;;6318330;27;20263;-80
2023/06/03 11:10:51;;;;;;;2.87;2.27;;;19.90;38.70;;;;;;6319230;27;20237;-79
2023/06/03 11:13:54;;;;;;;4.13;2.10;;;19.90;39.40;;;;;;6303178;27;20355;-80
2023/06/03 11:17:15;;;;;;;3.70;2.00;;;20.00;39.00;;;;;;6312227;27;20237;-78
2023/06/03 11:20:38;;;;;;;1.90;1.90;;;20.30;39.80;;;;;;6313602;27;20652;-78
2023/06/03 11:23:43;;;;;;;2.60;2.40;;;20.50;39.00;;;;;;6311643;28;20704;-77
2023/06/03 11:26:48;;;;;;;2.17;2.07;;;20.50;39.60;;;;;;6322527;27;20225;-77
2023/06/03 11:29:57;;;;;;;2.00;1.90;;;20.60;39.40;;;;;;6307541;28;20244;-75
2023/06/03 11:33:11;;;;;;;3.30;2.30;;;20.80;38.30;;;;;;6320488;27;20242;-76
2023/06/03 11:36:54;;;;;;;2.10;2.00;;;20.80;38.40;;;;;;6330919;27;20303;-75
2023/06/03 11:40:04;;;;;;;2.33;1.93;;;20.80;38.20;;;;;;6321365;27;20338;-75
2023/06/03 11:43:08;;;;;;;2.10;2.00;;;20.70;38.00;;;;;;6326080;27;20305;-77
2023/06/03 11:46:12;;;;;;;2.67;2.00;;;20.80;39.00;;;;;;6310634;27;20245;-76
2023/06/03 11:49:15;;;;;;;4.63;2.50;;;20.90;38.20;;;;;;6309053;27;20244;-76
2023/06/03 11:52:21;;;;;;;2.20;2.10;;;20.90;38.10;;;;;;6335005;27;20252;-79
2023/06/03 11:55:26;;;;;;;2.33;1.90;;;20.70;38.30;;;;;;6315005;27;20800;-80
2023/06/03 11:58:31;;;;;;;2.10;1.90;;;20.50;38.20;;;;;;6306120;27;20235;-80
2023/06/03 12:01:34;;;;;;;3.57;2.20;;;20.40;39.00;;;;;;6328769;27;20330;-79
2023/06/03 12:04:37;;;;;;;1.80;1.80;;;20.30;38.50;;;;;;6299881;27;20224;-78
2023/06/03 12:07:43;;;;;;;2.77;2.03;;;20.30;38.80;;;;;;6328435;27;20470;-78
2023/06/03 12:10:46;;;;;;;1.90;1.80;;;20.30;38.50;;;;;;6318364;27;20316;-80
2023/06/03 12:13:51;;;;;;;1.93;1.80;;;20.50;38.60;;;;;;6316823;27;20724;-78
2023/06/03 12:16:55;;;;;;;1.93;1.83;;;20.30;38.00;;;;;;6303418;27;20834;-78
2023/06/03 12:20:00;;;;;;;2.80;2.13;;;20.30;38.30;;;;;;6323056;27;20233;-79
2023/06/03 12:23:05;;;;;;;2.50;2.40;;;20.50;38.10;;;;;;6318185;28;20237;-79
2023/06/03 12:26:09;;;;;;;2.10;2.00;;;20.60;37.70;;;;;;6331052;27;20231;-77
2023/06/03 12:29:15;;;;;;;1.73;1.73;;;20.60;38.00;;;;;;6322135;27;20628;-78
2023/06/03 12:32:19;;;;;;;2.17;1.97;;;20.50;37.80;;;;;;6326086;27;20854;-76
2023/06/03 12:35:22;;;;;;;2.00;2.00;;;20.50;37.50;;;;;;6330922;27;20253;-78
2023/06/03 12:38:25;;;;;;;3.70;1.70;;;20.50;37.50;;;;;;6314130;27;20237;-79
2023/06/03 12:41:31;;;;;;;1.90;1.80;;;20.70;37.80;;;;;;6321847;27;20240;-79
2023/06/03 12:44:46;;;;;;;2.20;1.90;;;20.80;37.10;;;;;;6327555;27;20255;-79
2023/06/03 12:47:49;;;;;;;2.00;1.90;;;20.70;37.30;;;;;;6313213;27;20303;-80
2023/06/03 12:50:54;;;;;;;2.03;1.93;;;20.80;37.50;;;;;;6310195;27;20765;-82
2023/06/03 12:53:58;;;;;;;1.87;1.67;;;20.70;37.60;;;;;;6322134;27;20743;-81
2023/06/03 12:57:03;;;;;;;1.90;1.90;;;20.90;37.90;;;;;;6309654;27;20244;-82
2023/06/03 13:00:11;;;;;;;2.27;2.10;;;20.90;37.80;;;;;;6307916;27;20597;-83
2023/06/03 13:03:15;;;;;;;1.90;1.80;;;21.10;38.80;;;;;;6326882;27;20236;-81
2023/06/03 13:06:18;;;;;;;2.33;2.23;;;21.10;37.80;;;;;;6305814;27;20741;-82
2023/06/03 13:09:21;;;;;;;2.93;1.97;;;20.80;37.90;;;;;;6311818;27;20773;-80
2023/06/03 13:12:24;;;;;;;2.10;1.87;;;20.80;38.40;;;;;;6310905;28;20722;-80
2023/06/03 13:15:29;;;;;;;2.00;1.87;;;20.80;37.90;;;;;;6305751;27;20239;-80
2023/06/03 13:18:32;;;;;;;3.20;1.93;;;20.80;38.30;;;;;;6306242;27;20729;-82
2023/06/03 13:21:35;;;;;;;2.20;2.00;;;20.90;38.30;;;;;;6322643;27;20254;-76
2023/06/03 13:24:38;;;;;;;1.87;1.87;;;20.70;37.90;;;;;;6309484;27;20721;-76
2023/06/03 13:27:41;;;;;;;1.93;1.93;;;20.60;37.70;;;;;;6325368;27;20431;-77
2023/06/03 13:30:49;;;;;;;1.83;1.83;;;20.50;37.70;;;;;;6322280;27;20267;-77
2023/06/03 13:33:52;;;;;;;2.73;2.37;;;20.70;37.50;;;;;;6317109;27;20240;-77
2023/06/03 13:36:55;;;;;;;2.13;2.00;;;20.70;37.50;;;;;;6326850;27;20601;-77
2023/06/03 13:39:58;;;;;;;2.90;2.17;;;20.70;37.60;;;;;;6313084;27;20223;-75
2023/06/03 13:43:04;;;;;;;1.90;1.90;;;20.60;37.70;;;;;;6329334;27;20776;-77
2023/06/03 13:46:12;;;;;;;2.83;1.73;;;20.50;37.60;;;;;;6313034;27;20237;-76
2023/06/03 13:49:15;;;;;;;2.03;1.87;;;20.80;38.30;;;;;;6315540;27;20256;-75
2023/06/03 13:52:18;;;;;;;2.43;2.10;;;21.00;37.70;;;;;;6326949;27;20251;-77
2023/06/03 13:55:22;;;;;;;2.40;1.90;;;21.10;37.80;;;;;;6315041;28;20248;-78
2023/06/03 13:58:25;;;;;;;2.10;2.00;;;21.30;37.40;;;;;;6324572;27;20324;-75
2023/06/03 14:01:30;;;;;;;2.40;2.20;;;21.40;37.10;;;;;;6322562;27;20289;-77
2023/06/03 14:04:34;;;;;;;2.53;2.30;;;21.40;37.30;;;;;;6308027;27;20303;-84
2023/06/03 14:07:37;;;;;;;2.27;2.10;;;21.20;37.20;;;;;;6303062;27;20317;-83
2023/06/03 14:10:42;;;;;;;2.10;2.00;;;21.30;37.40;;;;;;6307962;27;20248;-79
2023/06/03 14:13:46;;;;;;;5.00;2.90;;;21.50;37.20;;;;;;6308332;28;20225;-85
2023/06/03 14:16:50;;;;;;;1.80;1.80;;;21.50;36.70;;;;;;6320086;28;20317;-83
2023/06/03 14:19:54;;;;;;;2.10;2.10;;;21.50;37.20;;;;;;6313365;28;20312;-83
2023/06/03 14:22:59;;;;;;;2.03;2.00;;;21.40;37.10;;;;;;6309335;28;20236;-82
2023/06/03 14:26:03;;;;;;;3.83;1.87;;;21.60;36.60;;;;;;6316816;28;20755;-80
2023/06/03 14:29:07;;;;;;;1.90;1.90;;;21.50;37.20;;;;;;6319043;27;20248;-81
2023/06/03 14:32:11;;;;;;;2.27;2.13;;;21.50;36.10;;;;;;6311680;27;20236;-79
2023/06/03 14:35:15;;;;;;;2.10;2.00;;;21.50;36.30;;;;;;6311804;28;20239;-80
2023/06/03 14:38:20;;;;;;;2.00;1.80;;;21.30;36.20;;;;;;6306493;28;20315;-80
2023/06/03 14:41:24;;;;;;;2.40;2.20;;;21.40;36.60;;;;;;6311165;27;20711;-76
2023/06/03 14:44:27;;;;;;;2.43;2.00;;;21.50;36.80;;;;;;6320575;27;20293;-80
2023/06/03 14:47:31;;;;;;;2.20;2.20;;;21.70;37.20;;;;;;6308417;27;20236;-80
2023/06/03 14:50:35;;;;;;;2.60;2.40;;;21.80;36.80;;;;;;6312094;27;20279;-79
2023/06/03 14:53:38;;;;;;;6.73;6.23;;;21.80;36.80;;;;;;6310471;27;20237;-77
2023/06/03 14:56:41;;;;;;;2.30;2.20;;;21.50;36.60;;;;;;6321265;27;20225;-80
2023/06/03 14:59:44;;;;;;;1.97;1.90;;;21.50;36.60;;;;;;6308642;27;20908;-82
2023/06/03 15:02:49;;;;;;;1.80;1.70;;;21.50;36.20;;;;;;6306964;27;20310;-83
2023/06/03 15:05:52;;;;;;;2.00;2.00;;;21.60;37.30;;;;;;6317497;27;20233;-82
2023/06/03 15:08:55;;;;;;;1.80;1.80;;;21.70;36.60;;;;;;6311774;27;20225;-79
2023/06/03 15:11:58;;;;;;;2.57;2.47;;;21.50;36.80;;;;;;6308925;27;20304;-79
2023/06/03 15:15:02;;;;;;;2.30;2.20;;;21.60;36.90;;;;;;6318702;27;20237;-81
2023/06/03 15:18:06;;;;;;;2.77;2.10;;;21.70;36.70;;;;;;6328038;27;20246;-77
2023/06/03 15:21:09;;;;;;;1.93;1.93;;;21.70;36.30;;;;;;6314823;27;20244;-79
2023/06/03 15:24:12;;;;;;;1.93;1.90;;;21.50;36.50;;;;;;6312742;27;20247;-80
2023/06/03 15:27:15;;;;;;;2.30;2.20;;;21.50;36.50;;;;;;6317820;28;20312;-79
2023/06/03 15:30:19;;;;;;;1.83;1.70;;;21.50;36.60;;;;;;6319532;27;20712;-80
2023/06/03 15:33:26;;;;;;;1.87;1.77;;;21.50;36.20;;;;;;6323899;27;20247;-84
2023/06/03 15:36:29;;;;;;;2.00;1.90;;;21.50;36.00;;;;;;6310602;27;20232;-81
2023/06/03 15:39:33;;;;;;;2.10;2.00;;;21.40;35.70;;;;;;6315170;27;20225;-83
2023/06/03 15:42:36;;;;;;;2.53;2.03;;;21.20;36.10;;;;;;6310558;28;20244;-82
2023/06/03 15:45:39;;;;;;;2.20;2.10;;;20.90;36.00;;;;;;6317222;28;20232;-80
2023/06/03 15:48:44;;;;;;;2.20;2.10;;;20.80;36.80;;;;;;6316514;28;20330;-81
2023/06/03 15:51:47;;;;;;;5.00;2.40;;;20.60;36.40;;;;;;6320371;27;20256;-81
2023/06/03 15:54:50;;;;;;;5.23;2.07;;;20.80;36.90;;;;;;6320934;28;20248;-80
2023/06/03 15:57:53;;;;;;;2.13;2.00;;;20.90;36.70;;;;;;6325026;27;20236;-79
2023/06/03 16:00:56;;;;;;;2.00;2.00;;;20.80;36.40;;;;;;6318553;28;20240;-79
2023/06/03 16:04:01;;;;;;;2.00;1.90;;;20.90;36.30;;;;;;6313461;27;20303;-79
2023/06/03 16:07:05;;;;;;;2.37;2.20;;;20.90;36.00;;;;;;6314969;28;20237;-81